Terminal Aerodrome Forecast
Issued by NWS

Home | Current Version | Previous Version | Text Only | Print | Product List | Glossary Off
Versions: 1 2 3 4 5 6 7 8 9 10 11 12 13 14 15 16 17 18 19 20

000
FTUS42 KMHX 192300
TAFOAJ
TAF
KOAJ 192339Z 2000/2024 35003KT P6SM VCSH SCT025 BKN040
     FM200700 00000KT 4SM BR SCT004 OVC025
     FM200800 00000KT 1SM BR OVC004
     FM201300 VRB02KT 4SM BR BKN015
     FM201500 01004KT P6SM VCSH SCT035 BKN120
      AMD LTD TO CLD VIS AND WIND=

USA.gov is the U.S. government's official web portal to all federal, state and local government web resources and services.